createdAt,value
2017-05-09T00:00:00.808Z,7.02
2017-05-09T00:00:41.429Z,6.93
2017-05-09T00:01:22.035Z,6.96
2017-05-09T00:02:02.612Z,6.97
2017-05-09T00:02:43.206Z,7
2017-05-09T00:03:23.807Z,6.95
2017-05-09T00:04:04.388Z,7.07
2017-05-09T00:04:44.981Z,7.1
2017-05-09T00:05:25.569Z,7.03
2017-05-09T00:06:06.206Z,6.97
2017-05-09T00:06:46.810Z,7.02
2017-05-09T00:07:27.409Z,6.96
2017-05-09T00:08:08.005Z,7.03
2017-05-09T00:08:48.630Z,6.97
2017-05-09T00:09:29.233Z,6.97
2017-05-09T00:10:09.857Z,7.02
2017-05-09T00:10:50.477Z,6.97
2017-05-09T00:11:31.073Z,7.02
2017-05-09T00:12:11.710Z,6.99
2017-05-09T00:12:52.314Z,7.02
2017-05-09T00:13:32.924Z,6.93
2017-05-09T00:14:13.524Z,6.88
2017-05-09T00:14:54.138Z,6.82
2017-05-09T00:15:34.754Z,6.87
2017-05-09T00:16:15.369Z,6.84
2017-05-09T00:16:55.991Z,6.93
2017-05-09T00:17:36.597Z,6.96
2017-05-09T00:18:17.196Z,6.95
2017-05-09T00:18:57.808Z,7.02
2017-05-09T00:19:38.396Z,7
2017-05-09T00:20:19.031Z,6.97
2017-05-09T00:20:59.663Z,6.99
2017-05-09T00:21:40.283Z,6.99
2017-05-09T00:22:20.905Z,7
2017-05-09T00:23:01.524Z,6.97
2017-05-09T00:23:42.130Z,6.97
2017-05-09T00:24:22.723Z,7
2017-05-09T00:25:03.316Z,6.97
2017-05-09T00:25:43.939Z,7
2017-05-09T00:26:24.542Z,6.92
2017-05-09T00:27:05.154Z,6.87
2017-05-09T00:27:45.766Z,6.88
2017-05-09T00:28:26.384Z,6.89
2017-05-09T00:29:06.993Z,6.89
2017-05-09T00:29:47.611Z,6.85
2017-05-09T00:30:28.254Z,6.88
2017-05-09T00:31:08.866Z,6.87
2017-05-09T00:31:49.512Z,6.82
2017-05-09T00:32:30.109Z,6.92
2017-05-09T00:33:10.723Z,6.84
2017-05-09T00:33:51.368Z,6.82
2017-05-09T00:34:31.940Z,6.88
2017-05-09T00:35:12.543Z,6.84
2017-05-09T00:35:53.146Z,6.84
2017-05-09T00:36:33.748Z,6.82
2017-05-09T00:37:14.344Z,6.87
2017-05-09T00:37:55.018Z,6.85
2017-05-09T00:38:35.628Z,6.88
2017-05-09T00:39:16.235Z,6.85
2017-05-09T00:39:56.859Z,6.85
2017-05-09T00:40:37.462Z,6.82
2017-05-09T00:41:18.079Z,6.82
2017-05-09T00:41:58.743Z,6.88
2017-05-09T00:42:39.367Z,6.84
2017-05-09T00:43:20.012Z,6.89
2017-05-09T00:44:00.639Z,6.88
2017-05-09T00:44:41.236Z,6.84
2017-05-09T00:45:21.969Z,6.87
2017-05-09T00:46:02.577Z,6.88
2017-05-09T00:46:45.980Z,6.84
2017-05-09T00:47:26.625Z,6.88
2017-05-09T00:48:07.249Z,6.85
2017-05-09T00:48:47.848Z,6.87
2017-05-09T00:49:28.466Z,6.93
2017-05-09T00:50:09.052Z,6.84
2017-05-09T00:50:49.697Z,6.82
2017-05-09T00:51:30.347Z,6.85
2017-05-09T00:52:11.003Z,6.77
2017-05-09T00:52:51.603Z,6.88
2017-05-09T00:53:32.216Z,6.85
2017-05-09T00:54:12.844Z,6.87
2017-05-09T00:54:53.494Z,6.81
2017-05-09T00:55:34.107Z,6.87
2017-05-09T00:56:14.697Z,6.84
2017-05-09T00:56:55.299Z,6.88
2017-05-09T00:57:35.908Z,6.87
2017-05-09T00:58:16.515Z,6.88
2017-05-09T00:58:57.134Z,6.81
2017-05-09T00:59:37.766Z,6.82
2017-05-09T01:00:18.409Z,6.87
2017-05-09T01:00:59.049Z,6.81
2017-05-09T01:01:39.660Z,6.87
2017-05-09T01:02:20.295Z,6.89
2017-05-09T01:03:00.985Z,6.82
2017-05-09T01:03:41.644Z,6.87
2017-05-09T01:04:22.290Z,6.82
2017-05-09T01:05:02.914Z,6.89
2017-05-09T01:05:43.531Z,6.88
2017-05-09T01:06:24.141Z,6.79
2017-05-09T01:07:04.779Z,6.84
2017-05-09T01:07:45.391Z,6.95
2017-05-09T01:08:26.000Z,6.92
2017-05-09T01:09:06.582Z,6.89
2017-05-09T01:09:47.192Z,6.93
2017-05-09T01:10:27.792Z,6.85
2017-05-09T01:11:08.492Z,6.85
2017-05-09T01:11:49.085Z,6.85
2017-05-09T01:12:29.724Z,6.84
2017-05-09T01:13:10.325Z,6.88
2017-05-09T01:13:50.928Z,6.87
2017-05-09T01:14:31.511Z,6.92
2017-05-09T01:15:12.144Z,6.89
2017-05-09T01:15:52.752Z,6.87
2017-05-09T01:16:33.364Z,6.85
2017-05-09T01:17:13.967Z,6.82
2017-05-09T01:17:54.585Z,6.81
2017-05-09T01:18:35.189Z,6.84
2017-05-09T01:19:15.777Z,6.85
2017-05-09T01:19:56.347Z,6.87
2017-05-09T01:20:36.931Z,6.88
2017-05-09T01:21:17.539Z,6.92
2017-05-09T01:21:58.142Z,6.82
2017-05-09T01:22:38.743Z,6.87
2017-05-09T01:23:19.383Z,6.85
2017-05-09T01:23:59.927Z,6.82
2017-05-09T01:24:40.518Z,6.89
2017-05-09T01:25:21.108Z,6.85
2017-05-09T01:26:01.762Z,6.82
2017-05-09T01:26:42.352Z,6.89
2017-05-09T01:27:22.952Z,6.88
2017-05-09T01:28:03.563Z,6.84
2017-05-09T01:28:44.164Z,6.84
2017-05-09T01:29:24.738Z,6.89
2017-05-09T01:30:05.347Z,6.88
2017-05-09T01:30:46.017Z,6.93
2017-05-09T01:31:26.628Z,6.87
2017-05-09T01:32:07.292Z,6.92
2017-05-09T01:32:47.880Z,6.88
2017-05-09T01:33:28.495Z,6.88
2017-05-09T01:34:09.124Z,6.93
2017-05-09T01:34:49.793Z,6.88
2017-05-09T01:35:30.459Z,6.85
2017-05-09T01:36:11.083Z,6.85
2017-05-09T01:36:51.680Z,6.82
2017-05-09T01:37:32.259Z,6.92
2017-05-09T01:38:12.868Z,6.89
2017-05-09T01:38:53.483Z,6.85
2017-05-09T01:39:34.100Z,6.89
2017-05-09T01:40:14.719Z,6.92
2017-05-09T01:40:55.328Z,6.88
2017-05-09T01:41:35.971Z,6.85
2017-05-09T01:42:16.612Z,6.95
2017-05-09T01:42:57.259Z,6.96
2017-05-09T01:43:37.889Z,6.92
2017-05-09T01:44:18.512Z,6.85
2017-05-09T01:44:59.118Z,6.95
2017-05-09T01:45:39.716Z,6.99
2017-05-09T01:46:20.328Z,7.02
2017-05-09T01:47:00.949Z,7.03
2017-05-09T01:47:41.550Z,6.97
2017-05-09T01:48:22.162Z,7.05
2017-05-09T01:49:02.763Z,6.95
2017-05-09T01:49:43.358Z,6.99
2017-05-09T01:50:24.007Z,7
2017-05-09T01:51:04.613Z,6.95
2017-05-09T01:51:45.234Z,7.05
2017-05-09T01:52:25.908Z,7.03
2017-05-09T01:53:06.552Z,6.95
2017-05-09T01:53:47.128Z,6.96
2017-05-09T01:54:27.733Z,7
2017-05-09T01:55:08.333Z,7
2017-05-09T01:55:49.002Z,6.95
2017-05-09T01:56:29.623Z,6.99
2017-05-09T01:57:10.222Z,6.87
2017-05-09T01:57:50.832Z,6.89
2017-05-09T01:58:31.437Z,6.95
2017-05-09T01:59:12.063Z,6.85
2017-05-09T01:59:52.656Z,6.87
2017-05-09T02:00:33.253Z,6.84
2017-05-09T02:01:13.852Z,6.84
2017-05-09T02:01:54.449Z,6.85
2017-05-09T02:02:35.056Z,6.88
2017-05-09T02:03:15.664Z,6.87
2017-05-09T02:03:56.280Z,6.87
2017-05-09T02:04:36.898Z,6.79
2017-05-09T02:05:17.501Z,6.84
2017-05-09T02:05:58.120Z,6.87
2017-05-09T02:06:38.767Z,6.85
2017-05-09T02:07:19.372Z,6.85
2017-05-09T02:07:59.957Z,6.96
2017-05-09T02:08:40.575Z,6.87
2017-05-09T02:09:21.236Z,6.84
2017-05-09T02:10:01.851Z,6.88
2017-05-09T02:10:42.533Z,6.85
2017-05-09T02:11:23.144Z,6.95
2017-05-09T02:12:03.745Z,6.87
2017-05-09T02:12:44.327Z,6.82
2017-05-09T02:13:24.925Z,6.82
2017-05-09T02:14:05.571Z,6.78
2017-05-09T02:14:46.191Z,6.78
2017-05-09T02:15:26.805Z,6.79
2017-05-09T02:16:07.398Z,6.79
2017-05-09T02:16:48.018Z,6.75
2017-05-09T02:17:28.605Z,6.84
2017-05-09T02:18:09.220Z,6.78
2017-05-09T02:18:49.825Z,6.67
2017-05-09T02:19:30.416Z,6.74
2017-05-09T02:20:11.005Z,6.82
2017-05-09T02:20:51.614Z,6.84
2017-05-09T02:21:32.230Z,6.7
2017-05-09T02:22:12.852Z,6.69
2017-05-09T02:22:53.466Z,6.78
2017-05-09T02:23:34.091Z,6.7
2017-05-09T02:24:14.697Z,6.66
2017-05-09T02:24:55.333Z,6.66
2017-05-09T02:25:35.951Z,6.72
2017-05-09T02:26:16.561Z,6.7
2017-05-09T02:26:57.169Z,6.77
2017-05-09T02:27:37.823Z,6.69
2017-05-09T02:28:18.457Z,6.72
2017-05-09T02:28:59.056Z,6.78
2017-05-09T02:29:39.647Z,6.72
2017-05-09T02:30:20.259Z,6.74
2017-05-09T02:31:00.889Z,6.69
2017-05-09T02:31:41.489Z,6.77
2017-05-09T02:32:22.096Z,6.85
2017-05-09T02:33:02.716Z,6.81
2017-05-09T02:33:43.321Z,6.82
2017-05-09T02:34:23.960Z,6.89
2017-05-09T02:35:04.552Z,6.97
2017-05-09T02:35:45.157Z,6.93
2017-05-09T02:36:25.784Z,6.84
2017-05-09T02:37:06.383Z,6.85
2017-05-09T02:37:47.022Z,6.82
2017-05-09T02:38:27.693Z,6.82
2017-05-09T02:39:08.290Z,6.89
2017-05-09T02:39:48.888Z,6.85
2017-05-09T02:40:29.506Z,6.88
2017-05-09T02:41:10.098Z,6.87
2017-05-09T02:41:50.687Z,6.87
2017-05-09T02:42:31.288Z,6.89
2017-05-09T02:43:11.901Z,6.88
2017-05-09T02:43:52.514Z,6.89
2017-05-09T02:44:33.102Z,6.89
2017-05-09T02:45:13.742Z,6.88
2017-05-09T02:45:54.352Z,6.84
2017-05-09T02:46:34.961Z,6.87
2017-05-09T02:47:15.550Z,6.82
2017-05-09T02:47:56.153Z,6.82
2017-05-09T02:48:36.739Z,6.87
2017-05-09T02:49:17.329Z,6.82
2017-05-09T02:49:57.952Z,6.89
2017-05-09T02:50:38.608Z,6.79
2017-05-09T02:51:19.213Z,6.85
2017-05-09T02:51:59.822Z,6.88
2017-05-09T02:52:40.433Z,6.78
2017-05-09T02:53:21.044Z,6.85
2017-05-09T02:54:01.680Z,6.84
2017-05-09T02:54:42.280Z,6.85
2017-05-09T02:55:22.927Z,6.85
2017-05-09T02:56:03.513Z,6.88
2017-05-09T02:56:44.123Z,6.82
2017-05-09T02:57:24.712Z,6.88
2017-05-09T02:58:05.299Z,6.85
2017-05-09T02:58:45.970Z,6.92
2017-05-09T02:59:26.576Z,6.92
2017-05-09T03:00:07.187Z,6.82
2017-05-09T03:00:47.813Z,6.87
2017-05-09T03:01:28.429Z,6.82
2017-05-09T03:02:09.049Z,6.87
2017-05-09T03:02:49.650Z,6.84
2017-05-09T03:03:30.253Z,6.85
2017-05-09T03:04:10.893Z,6.85
2017-05-09T03:04:51.486Z,6.88
2017-05-09T03:05:32.114Z,6.84
2017-05-09T03:06:12.718Z,6.96
2017-05-09T03:06:53.305Z,6.88
2017-05-09T03:07:33.938Z,6.87
2017-05-09T03:08:14.549Z,6.82
2017-05-09T03:08:55.210Z,6.84
2017-05-09T03:09:35.840Z,6.84
2017-05-09T03:10:16.435Z,6.84
2017-05-09T03:10:57.040Z,6.82
2017-05-09T03:11:37.679Z,6.85
2017-05-09T03:12:18.313Z,6.87
2017-05-09T03:12:58.923Z,6.82
2017-05-09T03:13:39.518Z,6.85
2017-05-09T03:14:20.125Z,6.89
2017-05-09T03:15:00.754Z,6.88
2017-05-09T03:15:41.357Z,6.89
2017-05-09T03:16:21.945Z,6.87
2017-05-09T03:17:02.537Z,6.88
2017-05-09T03:17:43.144Z,6.88
2017-05-09T03:18:23.781Z,6.97
2017-05-09T03:19:04.354Z,6.88
2017-05-09T03:19:44.977Z,6.85
2017-05-09T03:20:25.611Z,6.84
2017-05-09T03:21:06.229Z,6.84
2017-05-09T03:21:46.892Z,6.92
2017-05-09T03:22:27.484Z,6.87
2017-05-09T03:23:08.084Z,6.82
2017-05-09T03:23:48.685Z,6.82
2017-05-09T03:24:29.284Z,6.89
2017-05-09T03:25:09.894Z,6.87
2017-05-09T03:25:50.489Z,6.87
2017-05-09T03:26:31.121Z,6.85
2017-05-09T03:27:11.797Z,6.82
2017-05-09T03:27:52.405Z,6.82
2017-05-09T03:28:33.059Z,6.84
2017-05-09T03:29:13.663Z,6.89
2017-05-09T03:29:54.278Z,6.88
2017-05-09T03:30:34.910Z,6.85
2017-05-09T03:31:15.514Z,6.87
2017-05-09T03:31:56.115Z,6.87
2017-05-09T03:32:36.735Z,6.87
2017-05-09T03:33:17.327Z,6.85
2017-05-09T03:33:57.927Z,6.88
2017-05-09T03:34:38.526Z,6.82
2017-05-09T03:35:19.162Z,6.82
2017-05-09T03:35:59.764Z,6.84
2017-05-09T03:36:40.373Z,6.88
2017-05-09T03:37:20.983Z,6.88
2017-05-09T03:38:01.640Z,6.88
2017-05-09T03:38:42.250Z,6.92
2017-05-09T03:39:22.851Z,6.88
2017-05-09T03:40:03.453Z,6.95
2017-05-09T03:40:44.060Z,6.97
2017-05-09T03:41:24.668Z,7.05
2017-05-09T03:42:05.260Z,6.97
2017-05-09T03:42:45.877Z,7.02
2017-05-09T03:43:26.504Z,6.95
2017-05-09T03:44:07.117Z,7.03
2017-05-09T03:46:19.946Z,6.96
2017-05-09T03:47:00.520Z,6.95
2017-05-09T03:47:41.120Z,6.97
2017-05-09T03:48:21.702Z,7.02
2017-05-09T03:49:02.279Z,6.92
2017-05-09T03:49:42.880Z,7.02
2017-05-09T03:50:23.516Z,6.96
2017-05-09T03:51:04.098Z,7.02
2017-05-09T03:51:44.703Z,7.07
2017-05-09T03:52:25.294Z,7.07
2017-05-09T03:53:05.846Z,7.06
2017-05-09T03:53:46.433Z,7.11
2017-05-09T03:54:27.025Z,7.06
2017-05-09T03:55:07.864Z,7.06
2017-05-09T03:55:48.588Z,7.13
2017-05-09T03:56:29.174Z,7.2
2017-05-09T03:57:09.741Z,7.2
2017-05-09T03:57:50.317Z,7.18
2017-05-09T03:58:30.905Z,7.18
2017-05-09T03:59:11.516Z,7.17
2017-05-09T03:59:52.127Z,7.17
2017-05-09T04:00:32.833Z,7.25
2017-05-09T04:01:13.446Z,7.2
2017-05-09T04:01:54.087Z,7.25
2017-05-09T04:02:34.674Z,7.2
2017-05-09T04:03:15.276Z,7.29
2017-05-09T04:03:55.894Z,7.15
2017-05-09T04:04:36.505Z,7.17
2017-05-09T04:05:17.114Z,7.31
2017-05-09T04:05:57.729Z,7.32
2017-05-09T04:06:38.338Z,7.18
2017-05-09T04:07:18.921Z,7.2
2017-05-09T04:07:59.540Z,7.17
2017-05-09T04:08:40.127Z,7.24
2017-05-09T04:09:20.739Z,7.25
2017-05-09T04:10:01.355Z,7.2
2017-05-09T04:10:41.966Z,7.21
2017-05-09T04:11:22.541Z,7.18
2017-05-09T04:12:03.182Z,7.25
2017-05-09T04:12:43.788Z,7.18
2017-05-09T04:13:24.384Z,7.24
2017-05-09T04:14:05.014Z,7.14
2017-05-09T04:14:45.681Z,7.2
2017-05-09T04:15:26.396Z,7.21
2017-05-09T04:16:06.972Z,7.18
2017-05-09T04:16:47.597Z,7.29
2017-05-09T04:17:28.287Z,7.29
2017-05-09T04:18:09.103Z,7.33
2017-05-09T04:18:49.711Z,7.29
2017-05-09T04:19:30.356Z,7.39
2017-05-09T04:20:10.948Z,7.32
2017-05-09T04:20:51.569Z,7.32
2017-05-09T04:21:32.159Z,7.36
2017-05-09T04:22:12.808Z,7.4
2017-05-09T04:22:53.400Z,7.47
2017-05-09T04:23:34.003Z,7.4
2017-05-09T04:24:14.654Z,7.39
2017-05-09T04:24:55.272Z,7.45
2017-05-09T04:25:35.893Z,7.48
2017-05-09T04:26:16.485Z,7.47
2017-05-09T04:26:57.094Z,7.42
2017-05-09T04:27:37.676Z,7.43
2017-05-09T04:28:18.249Z,7.4
2017-05-09T04:28:58.842Z,7.4
2017-05-09T04:29:39.413Z,7.45
2017-05-09T04:30:19.996Z,7.51
2017-05-09T04:31:00.579Z,7.54
2017-05-09T04:31:41.155Z,7.56
2017-05-09T04:32:21.747Z,7.54
2017-05-09T04:33:02.336Z,7.53
2017-05-09T04:33:42.929Z,7.56
2017-05-09T04:34:23.517Z,7.48
2017-05-09T04:35:04.110Z,7.5
2017-05-09T04:35:44.688Z,7.56
2017-05-09T04:36:25.256Z,7.53
2017-05-09T04:37:05.866Z,7.48
2017-05-09T04:37:46.479Z,7.58
2017-05-09T04:38:27.078Z,7.66
2017-05-09T04:39:07.669Z,7.57
2017-05-09T04:39:48.248Z,7.56
2017-05-09T04:40:28.864Z,7.56
2017-05-09T04:41:09.495Z,7.57
2017-05-09T04:41:50.116Z,7.56
2017-05-09T04:42:30.739Z,7.63
2017-05-09T04:43:11.345Z,7.67
2017-05-09T04:43:51.971Z,7.57
2017-05-09T04:44:32.594Z,7.66
2017-05-09T04:45:13.184Z,7.56
2017-05-09T04:45:53.784Z,7.6
2017-05-09T04:46:34.387Z,7.6
2017-05-09T04:47:15.013Z,7.61
2017-05-09T04:47:55.620Z,7.61
2017-05-09T04:48:36.290Z,7.58
2017-05-09T04:49:16.902Z,7.61
2017-05-09T04:49:57.487Z,7.6
2017-05-09T04:50:38.159Z,7.69
2017-05-09T04:51:18.758Z,7.63
2017-05-09T04:51:59.358Z,7.7
2017-05-09T04:52:39.984Z,7.7
2017-05-09T04:53:20.599Z,7.72
2017-05-09T04:54:01.238Z,7.72
2017-05-09T04:54:41.867Z,7.69
2017-05-09T04:55:22.460Z,7.73
2017-05-09T04:56:03.069Z,7.75
2017-05-09T04:56:43.685Z,7.76
2017-05-09T04:57:24.298Z,7.75
2017-05-09T04:58:04.909Z,7.72
2017-05-09T04:58:45.564Z,7.7
2017-05-09T04:59:26.236Z,7.8
2017-05-09T05:00:06.845Z,7.73
2017-05-09T05:00:47.437Z,7.75
2017-05-09T05:01:28.019Z,7.75
2017-05-09T05:02:08.633Z,7.76
2017-05-09T05:02:49.256Z,7.75
2017-05-09T05:03:29.913Z,7.77
2017-05-09T05:04:10.549Z,7.88
2017-05-09T05:04:51.167Z,7.87
2017-05-09T05:05:31.790Z,7.85
2017-05-09T05:06:12.398Z,7.93
2017-05-09T05:06:52.968Z,8.1
2017-05-09T05:07:33.559Z,8.06
2017-05-09T05:08:14.145Z,7.98
2017-05-09T05:08:54.725Z,7.98
2017-05-09T05:09:35.347Z,8.03
2017-05-09T05:10:15.931Z,8
2017-05-09T05:10:56.547Z,7.9
2017-05-09T05:11:37.130Z,7.91
2017-05-09T05:12:17.708Z,7.95
2017-05-09T05:12:58.306Z,7.9
2017-05-09T05:13:38.893Z,7.95
2017-05-09T05:14:19.530Z,7.87
2017-05-09T05:15:00.124Z,7.88
2017-05-09T05:15:40.739Z,7.91
2017-05-09T05:16:21.342Z,7.85
2017-05-09T05:17:01.931Z,7.83
2017-05-09T05:17:42.510Z,7.8
2017-05-09T05:18:23.080Z,7.79
2017-05-09T05:19:03.737Z,7.83
2017-05-09T05:19:44.313Z,7.85
2017-05-09T05:20:24.913Z,7.82
2017-05-09T05:21:05.519Z,7.79
2017-05-09T05:21:46.160Z,7.76
2017-05-09T05:22:26.816Z,7.82
2017-05-09T05:23:08.967Z,7.77
2017-05-09T05:23:49.563Z,7.83
2017-05-09T05:24:30.179Z,7.82
2017-05-09T05:25:10.820Z,7.82
2017-05-09T05:25:51.462Z,7.8
2017-05-09T05:26:32.053Z,7.87
2017-05-09T05:27:12.645Z,7.93
2017-05-09T05:27:53.219Z,7.9
2017-05-09T05:28:33.917Z,7.9
2017-05-09T05:29:14.566Z,7.9
2017-05-09T05:29:55.175Z,7.87
2017-05-09T05:30:35.774Z,7.94
2017-05-09T05:31:16.370Z,7.88
2017-05-09T05:31:57.000Z,7.97
2017-05-09T05:32:37.596Z,7.85
2017-05-09T05:33:18.222Z,7.87
2017-05-09T05:33:58.829Z,8.01
2017-05-09T05:34:39.417Z,7.91
2017-05-09T05:35:20.033Z,7.95
2017-05-09T05:36:00.666Z,8.03
2017-05-09T05:36:41.253Z,8.06
2017-05-09T05:37:21.878Z,8.05
2017-05-09T05:38:02.495Z,8.1
2017-05-09T05:38:43.095Z,8.01
2017-05-09T05:39:23.683Z,8.05
2017-05-09T05:40:04.275Z,8.01
2017-05-09T05:40:44.887Z,8.01
2017-05-09T05:41:25.494Z,8.01
2017-05-09T05:42:06.092Z,8.16
2017-05-09T05:42:46.727Z,8.16
2017-05-09T05:43:27.370Z,8.24
2017-05-09T05:44:08.035Z,8.41
2017-05-09T05:44:48.655Z,8.51
2017-05-09T05:45:29.257Z,8.71
2017-05-09T05:46:09.870Z,8.89
2017-05-09T05:46:50.448Z,9.13
2017-05-09T05:47:31.056Z,9.26
2017-05-09T05:48:11.696Z,9.41
2017-05-09T05:48:52.310Z,9.48
2017-05-09T05:49:32.922Z,9.74
2017-05-09T05:50:13.552Z,9.86
2017-05-09T05:50:54.190Z,9.92
2017-05-09T05:51:34.856Z,10.09
2017-05-09T05:52:15.442Z,10.19
2017-05-09T05:52:56.060Z,10.34
2017-05-09T05:53:36.690Z,10.4
2017-05-09T05:54:17.313Z,10.6
2017-05-09T05:54:57.943Z,10.79
2017-05-09T05:55:38.613Z,10.86
2017-05-09T05:56:19.194Z,10.94
2017-05-09T05:56:59.827Z,11.08
2017-05-09T05:57:40.450Z,11.18
2017-05-09T05:58:21.055Z,11.22
2017-05-09T05:59:01.654Z,11.27
2017-05-09T05:59:42.300Z,11.23
2017-05-09T06:00:22.922Z,11.23
2017-05-09T06:01:03.556Z,11.08
2017-05-09T06:01:44.184Z,10.92
2017-05-09T06:02:24.796Z,10.86
2017-05-09T06:03:05.471Z,10.76
2017-05-09T06:03:46.107Z,10.6
2017-05-09T06:04:26.720Z,10.49
2017-05-09T06:05:07.323Z,10.38
2017-05-09T06:05:47.922Z,10.23
2017-05-09T06:06:28.510Z,10.09
2017-05-09T06:07:09.129Z,10.04
2017-05-09T06:07:49.790Z,9.98
2017-05-09T06:08:30.454Z,9.83
2017-05-09T06:09:11.083Z,9.74
2017-05-09T06:09:51.701Z,9.65
2017-05-09T06:10:32.297Z,9.62
2017-05-09T06:11:12.902Z,9.55
2017-05-09T06:11:53.561Z,9.47
2017-05-09T06:12:34.169Z,9.39
2017-05-09T06:13:14.778Z,9.32
2017-05-09T06:13:55.432Z,9.28
2017-05-09T06:14:36.023Z,9.23
2017-05-09T06:15:16.598Z,9.14
2017-05-09T06:15:57.198Z,9.21
2017-05-09T06:16:37.805Z,9.21
2017-05-09T06:17:18.395Z,9.04
2017-05-09T06:17:59.024Z,9.13
2017-05-09T06:18:39.596Z,9.14
2017-05-09T06:19:20.191Z,9.1
2017-05-09T06:20:00.812Z,9.1
2017-05-09T06:20:41.420Z,8.94
2017-05-09T06:21:22.007Z,8.97
2017-05-09T06:22:02.703Z,8.94
2017-05-09T06:22:43.353Z,9.04
2017-05-09T06:23:23.975Z,9
2017-05-09T06:24:04.608Z,9.11
2017-05-09T06:24:45.204Z,8.95
2017-05-09T06:25:25.873Z,9.02
2017-05-09T06:26:06.449Z,9.08
2017-05-09T06:26:47.102Z,9
2017-05-09T06:27:27.670Z,9.08
2017-05-09T06:28:08.307Z,8.94
2017-05-09T06:28:48.938Z,8.99
2017-05-09T06:29:29.579Z,8.95
2017-05-09T06:30:10.334Z,9.08
2017-05-09T06:30:51.089Z,9.03
2017-05-09T06:31:31.684Z,8.99
2017-05-09T06:32:12.273Z,8.97
2017-05-09T06:32:52.885Z,9.1
2017-05-09T06:33:33.495Z,9.1
2017-05-09T06:34:14.122Z,9.04
2017-05-09T06:34:54.753Z,9.14
2017-05-09T06:35:35.371Z,9.18
2017-05-09T06:36:15.980Z,9.16
2017-05-09T06:36:56.638Z,9.26
2017-05-09T06:37:37.221Z,9.28
2017-05-09T06:38:17.864Z,9.36
2017-05-09T06:38:58.481Z,9.32
2017-05-09T06:39:39.179Z,9.39
2017-05-09T06:40:19.743Z,9.37
2017-05-09T06:41:00.353Z,9.37
2017-05-09T06:41:40.939Z,9.5
2017-05-09T06:42:21.517Z,9.47
2017-05-09T06:43:02.106Z,9.48
2017-05-09T06:43:42.727Z,9.46
2017-05-09T06:44:23.384Z,9.5
2017-05-09T06:45:04.010Z,9.48
2017-05-09T06:45:44.618Z,9.51
2017-05-09T06:46:25.242Z,9.61
2017-05-09T06:47:05.913Z,9.62
2017-05-09T06:47:46.512Z,9.64
2017-05-09T06:48:27.114Z,9.51
2017-05-09T06:49:08.000Z,9.54
2017-05-09T06:49:48.642Z,9.64
2017-05-09T06:50:29.539Z,9.62
2017-05-09T06:51:10.243Z,9.65
2017-05-09T06:51:51.663Z,9.56
2017-05-09T06:52:32.451Z,9.65
2017-05-09T06:53:13.057Z,9.64
2017-05-09T06:53:53.696Z,9.65
2017-05-09T06:54:34.276Z,9.68
2017-05-09T06:55:14.882Z,9.69
2017-05-09T06:55:55.565Z,9.66
2017-05-09T06:56:36.884Z,9.72
2017-05-09T06:57:17.507Z,9.65
2017-05-09T06:57:58.124Z,9.76
2017-05-09T06:58:38.715Z,9.69
2017-05-09T06:59:19.333Z,9.77
2017-05-09T06:59:59.973Z,9.56
2017-05-09T07:00:40.642Z,9.69
2017-05-09T07:01:21.276Z,9.72
2017-05-09T07:02:02.042Z,9.86
2017-05-09T07:02:42.630Z,9.97
2017-05-09T07:03:23.214Z,10.09
2017-05-09T07:04:03.838Z,10.33
2017-05-09T07:04:44.411Z,10.51
2017-05-09T07:05:24.990Z,10.61
2017-05-09T07:06:05.588Z,10.63
2017-05-09T07:06:46.181Z,10.74
2017-05-09T07:07:26.770Z,10.75
2017-05-09T07:08:07.378Z,10.69
2017-05-09T07:08:48.103Z,10.72
2017-05-09T07:09:28.742Z,10.72
2017-05-09T07:10:09.372Z,10.72
2017-05-09T07:10:49.979Z,10.72
2017-05-09T07:11:30.792Z,10.72
2017-05-09T07:12:11.348Z,10.74
2017-05-09T07:12:51.966Z,10.68
2017-05-09T07:13:32.575Z,10.72
2017-05-09T07:14:13.182Z,10.67
2017-05-09T07:14:53.776Z,10.57
2017-05-09T07:15:34.409Z,10.54
2017-05-09T07:16:14.998Z,10.53
2017-05-09T07:16:55.644Z,10.48
2017-05-09T07:17:36.271Z,10.4
2017-05-09T07:18:16.897Z,10.4
2017-05-09T07:18:57.668Z,10.23
2017-05-09T07:19:38.335Z,10.35
2017-05-09T07:20:18.946Z,10.26
2017-05-09T07:20:59.581Z,10.35
2017-05-09T07:21:40.164Z,10.26
2017-05-09T07:22:20.828Z,10.19
2017-05-09T07:23:01.516Z,10.23
2017-05-09T07:23:42.118Z,10.23
2017-05-09T07:24:22.732Z,10.26
2017-05-09T07:25:03.387Z,10.23
2017-05-09T07:25:44.166Z,10.23
2017-05-09T07:26:24.803Z,10.15
2017-05-09T07:27:05.390Z,10.17
2017-05-09T07:27:45.994Z,10.16
2017-05-09T07:28:26.627Z,10.2
2017-05-09T07:29:07.279Z,10.2
2017-05-09T07:29:47.861Z,10.16
2017-05-09T07:30:28.484Z,10.22
2017-05-09T07:31:09.155Z,10.23
2017-05-09T07:31:49.784Z,10.22
2017-05-09T07:32:30.405Z,10.16
2017-05-09T07:33:11.235Z,10.28
2017-05-09T07:33:52.363Z,10.26
2017-05-09T07:34:34.109Z,10.38
2017-05-09T07:35:14.679Z,10.42
2017-05-09T07:35:55.614Z,10.54
2017-05-09T07:36:37.213Z,10.69
2017-05-09T07:37:17.972Z,10.86
2017-05-09T07:37:58.559Z,10.89
2017-05-09T07:38:39.151Z,11.04
2017-05-09T07:39:19.777Z,11.1
2017-05-09T07:40:00.384Z,11.29
2017-05-09T07:40:40.970Z,11.51
2017-05-09T07:41:22.506Z,11.65
2017-05-09T07:42:03.093Z,11.63
2017-05-09T07:42:43.680Z,11.62
2017-05-09T07:43:24.309Z,11.7
2017-05-09T07:44:04.890Z,11.69
2017-05-09T07:44:45.511Z,11.65
2017-05-09T07:45:26.092Z,11.75
2017-05-09T07:46:06.688Z,11.75
2017-05-09T07:46:47.263Z,11.55
2017-05-09T07:47:27.852Z,11.77
2017-05-09T07:48:08.430Z,11.59
2017-05-09T07:48:49.029Z,11.72
2017-05-09T07:49:29.676Z,11.69
2017-05-09T07:50:10.251Z,11.75
2017-05-09T07:50:50.859Z,11.73
2017-05-09T07:51:31.444Z,11.86
2017-05-09T07:52:12.046Z,11.83
2017-05-09T07:52:52.687Z,11.88
2017-05-09T07:53:33.309Z,11.88
2017-05-09T07:54:13.889Z,11.97
2017-05-09T07:54:54.453Z,12.15
2017-05-09T07:55:35.077Z,12.21
2017-05-09T07:56:15.697Z,12.29
2017-05-09T07:56:56.308Z,12.28
2017-05-09T07:57:36.901Z,12.32
2017-05-09T07:58:17.543Z,12.35
2017-05-09T07:58:58.167Z,12.45
2017-05-09T07:59:38.776Z,12.45
2017-05-09T08:00:19.389Z,12.43
2017-05-09T08:01:00.008Z,12.45
2017-05-09T08:01:40.600Z,12.47
2017-05-09T08:02:21.198Z,12.5
2017-05-09T08:03:01.809Z,12.47
2017-05-09T08:03:42.392Z,12.49
2017-05-09T08:04:22.973Z,12.46
2017-05-09T08:05:03.618Z,12.5
2017-05-09T08:05:44.269Z,12.46
2017-05-09T08:06:24.864Z,12.46
2017-05-09T08:07:05.467Z,12.45
2017-05-09T08:07:46.075Z,12.5
2017-05-09T08:08:26.688Z,12.45
2017-05-09T08:09:07.326Z,12.36
2017-05-09T08:09:47.917Z,12.25
2017-05-09T08:10:28.513Z,12.21
2017-05-09T08:11:09.157Z,12.1
2017-05-09T08:11:49.732Z,11.94
2017-05-09T08:12:30.343Z,11.97
2017-05-09T08:13:10.958Z,11.84
2017-05-09T08:13:51.579Z,11.81
2017-05-09T08:14:32.165Z,11.75
2017-05-09T08:15:12.795Z,11.7
2017-05-09T08:15:53.414Z,11.6
2017-05-09T08:16:34.058Z,11.65
2017-05-09T08:17:14.672Z,11.65
2017-05-09T08:17:55.303Z,11.55
2017-05-09T08:18:35.879Z,11.57
2017-05-09T08:19:16.503Z,11.55
2017-05-09T08:19:57.101Z,11.57
2017-05-09T08:20:37.733Z,11.51
2017-05-09T08:21:18.330Z,11.48
2017-05-09T08:21:58.922Z,11.48
2017-05-09T08:22:39.516Z,11.51
2017-05-09T08:23:20.133Z,11.51
2017-05-09T08:24:00.761Z,11.52
2017-05-09T08:24:41.417Z,11.54
2017-05-09T08:25:22.045Z,11.57
2017-05-09T08:26:02.687Z,11.51
2017-05-09T08:26:43.318Z,11.54
2017-05-09T08:27:23.926Z,11.48
2017-05-09T08:28:04.616Z,11.32
2017-05-09T08:28:45.243Z,11.48
2017-05-09T08:29:25.860Z,11.51
2017-05-09T08:30:06.526Z,11.57
2017-05-09T08:30:47.131Z,11.66
2017-05-09T08:31:27.741Z,11.65
2017-05-09T08:32:08.340Z,11.72
2017-05-09T08:32:48.950Z,11.72
2017-05-09T08:33:29.577Z,11.78
2017-05-09T08:34:10.202Z,11.87
2017-05-09T08:34:50.836Z,11.78
2017-05-09T08:35:31.448Z,11.8
2017-05-09T08:36:12.046Z,11.95
2017-05-09T08:36:52.651Z,11.91
2017-05-09T08:37:33.239Z,11.95
2017-05-09T08:38:13.846Z,12.13
2017-05-09T08:38:54.455Z,12.1
2017-05-09T08:39:35.142Z,12.21
2017-05-09T08:40:15.771Z,12.29
2017-05-09T08:40:56.385Z,12.49
2017-05-09T08:41:36.981Z,12.5
2017-05-09T08:42:17.615Z,12.58
2017-05-09T08:42:58.225Z,12.6
2017-05-09T08:43:38.801Z,12.61
2017-05-09T08:44:19.390Z,12.73
2017-05-09T08:44:59.979Z,12.75
2017-05-09T08:45:40.645Z,12.73
2017-05-09T08:46:21.218Z,12.72
2017-05-09T08:47:01.798Z,12.75
2017-05-09T08:47:42.374Z,12.58
2017-05-09T08:48:22.981Z,12.47
2017-05-09T08:49:03.613Z,12.5
2017-05-09T08:49:44.233Z,12.39
2017-05-09T08:50:24.850Z,12.35
2017-05-09T08:51:05.468Z,12.35
2017-05-09T08:51:46.099Z,12.2
2017-05-09T08:52:26.725Z,12.28
2017-05-09T08:53:07.342Z,12.2
2017-05-09T08:53:47.953Z,12.21
2017-05-09T08:54:28.548Z,12.18
2017-05-09T08:55:09.155Z,12.12
2017-05-09T08:55:49.802Z,12.15
2017-05-09T08:56:30.417Z,12.09
2017-05-09T08:57:11.048Z,12.2
2017-05-09T08:57:51.651Z,12.13
2017-05-09T08:58:32.254Z,12.21
2017-05-09T08:59:12.864Z,12.21
2017-05-09T08:59:53.543Z,12.24